Time;durP1;ratioP1;P1;durP2;ratioP2;P2;SDS_P1;SDS_P2;PMS_P1;PMS_P2;Temp;Humidity;BMP_temperature;BMP_pressure;BME280_temperature;BME280_humidity;BME280_pressure;Samples;Min_cycle;Max_cycle;Signal;HPM_P1;HPM_P2
2023/09/01 00:04:28;;;;;;;14.10;10.80;;;;;;;11.72;87.51;98750.05;225774;1280;22769;-75
2023/09/01 00:09:30;;;;;;;15.40;12.00;;;;;;;11.67;87.87;98754.79;225816;1280;22543;-75
2023/09/01 00:14:32;;;;;;;15.60;11.90;;;;;;;11.63;88.01;98753.50;225801;1276;22541;-75
2023/09/01 00:19:35;;;;;;;16.60;12.20;;;;;;;11.60;88.19;98749.27;225866;1274;22540;-75
2023/09/01 00:24:37;;;;;;;13.40;11.90;;;;;;;11.57;88.43;98751.59;225887;1276;25391;-75
2023/09/01 00:29:39;;;;;;;14.40;12.10;;;;;;;11.53;88.42;98758.49;225827;1276;22591;-75
2023/09/01 00:34:41;;;;;;;13.60;11.80;;;;;;;11.49;88.52;98763.09;225826;1276;22628;-75
2023/09/01 00:39:43;;;;;;;15.00;11.80;;;;;;;11.46;88.77;98760.92;225821;1276;22557;-75
2023/09/01 00:44:45;;;;;;;15.10;12.20;;;;;;;11.44;88.67;98757.23;225827;1272;22567;-74
2023/09/01 00:49:47;;;;;;;18.00;13.70;;;;;;;11.41;88.91;98760.58;225867;1280;24398;-75
2023/09/01 00:54:48;;;;;;;15.90;11.90;;;;;;;11.39;89.23;98770.41;225762;1278;22544;-75
2023/09/01 00:59:50;;;;;;;14.50;12.80;;;;;;;11.38;89.36;98775.25;225871;1276;22551;-75
2023/09/01 01:04:54;;;;;;;16.70;13.50;;;;;;;11.35;89.33;98764.97;225901;1274;22564;-75
2023/09/01 01:10:28;;;;;;;15.00;13.10;;;;;;;11.32;89.37;98770.88;225871;1276;25320;-75
2023/09/01 01:15:32;;;;;;;16.80;14.00;;;;;;;11.26;89.37;98770.16;225844;1277;22591;-74
2023/09/01 01:20:38;;;;;;;16.40;14.30;;;;;;;11.23;89.56;98768.02;225900;1280;22592;-75
2023/09/01 01:25:48;;;;;;;16.60;14.10;;;;;;;11.20;89.66;98764.25;225765;1275;22590;-75
2023/09/01 01:30:51;;;;;;;17.40;13.50;;;;;;;11.19;89.86;98770.10;225837;1276;22546;-76
2023/09/01 01:36:08;;;;;;;14.80;13.10;;;;;;;11.18;89.91;98775.25;225700;1278;183746;-75
2023/09/01 01:41:18;;;;;;;17.30;13.30;;;;;;;11.19;90.03;98780.23;225860;1276;22635;-75
2023/09/01 01:46:21;;;;;;;15.80;13.00;;;;;;;11.20;90.05;98776.98;225809;1278;22652;-76
2023/09/01 01:51:22;;;;;;;13.50;11.80;;;;;;;11.22;90.14;98780.75;225811;1278;22826;-76
2023/09/01 01:56:25;;;;;;;15.10;12.00;;;;;;;11.25;90.28;98784.64;225844;1280;22556;-76
2023/09/01 02:01:27;;;;;;;15.70;12.20;;;;;;;11.28;90.32;98787.25;225891;1276;22539;-76
2023/09/01 02:06:29;;;;;;;15.30;12.40;;;;;;;11.30;90.23;98790.80;225881;1276;23318;-75
2023/09/01 02:11:31;;;;;;;16.00;10.70;;;;;;;11.34;90.37;98797.30;225851;1276;22537;-75
2023/09/01 02:16:33;;;;;;;12.20;10.70;;;;;;;11.37;90.22;98791.77;225929;1280;22548;-76
2023/09/01 02:21:35;;;;;;;14.30;11.00;;;;;;;11.39;90.20;98786.01;225855;1278;22563;-76
2023/09/01 02:26:37;;;;;;;15.90;12.00;;;;;;;11.43;90.18;98782.30;225873;1276;22531;-76
2023/09/01 02:31:39;;;;;;;13.10;11.50;;;;;;;11.46;90.09;98778.27;225815;1278;22543;-76
2023/09/01 02:36:40;;;;;;;13.10;11.60;;;;;;;11.47;90.22;98775.50;225923;1276;24212;-76
2023/09/01 02:41:43;;;;;;;16.00;12.40;;;;;;;11.45;90.19;98771.30;225822;1270;22564;-76
2023/09/01 02:46:44;;;;;;;15.00;13.30;;;;;;;11.39;90.17;98771.23;225874;1278;24217;-75
2023/09/01 02:51:48;;;;;;;21.00;14.60;;;;;;;11.31;90.10;98769.28;225907;1277;22493;-75
2023/09/01 02:56:50;;;;;;;18.90;14.80;;;;;;;11.23;90.24;98776.27;225935;1276;22634;-76
2023/09/01 03:01:52;;;;;;;18.70;12.80;;;;;;;11.15;90.19;98777.67;225887;1275;22540;-75
2023/09/01 03:06:54;;;;;;;16.00;11.70;;;;;;;11.05;90.17;98778.13;225822;1275;24216;-76
2023/09/01 03:11:56;;;;;;;14.00;11.20;;;;;;;10.98;90.09;98777.49;225846;1280;22543;-75
2023/09/01 03:16:57;;;;;;;19.00;14.30;;;;;;;10.90;90.16;98786.86;225814;1278;22554;-75
2023/09/01 03:22:00;;;;;;;14.30;11.20;;;;;;;10.85;90.25;98785.99;225931;1275;22963;-75
2023/09/01 03:27:02;;;;;;;15.30;11.30;;;;;;;10.80;90.24;98786.98;225714;1279;22554;-75
2023/09/01 03:32:04;;;;;;;12.10;10.60;;;;;;;10.75;90.43;98780.50;225795;1278;24371;-76
2023/09/01 03:37:11;;;;;;;13.20;10.80;;;;;;;10.71;90.45;98775.52;225807;1278;22577;-75
2023/09/01 03:42:14;;;;;;;12.40;9.40;;;;;;;10.68;90.57;98776.49;225767;1280;25278;-76
2023/09/01 03:47:15;;;;;;;12.40;9.10;;;;;;;10.64;90.55;98777.48;225850;1278;22524;-75
2023/09/01 03:52:18;;;;;;;13.50;10.00;;;;;;;10.61;90.56;98776.30;225786;1278;22546;-76
2023/09/01 03:57:20;;;;;;;13.20;10.20;;;;;;;10.55;90.45;98776.92;225754;1275;22492;-76
2023/09/01 04:02:21;;;;;;;14.00;9.60;;;;;;;10.51;90.58;98784.91;225719;1276;22529;-75
2023/09/01 04:07:23;;;;;;;11.40;8.80;;;;;;;10.47;90.58;98781.84;225926;1280;22565;-76
2023/09/01 04:12:25;;;;;;;12.10;8.80;;;;;;;10.45;90.67;98783.41;225850;1280;22551;-76
2023/09/01 04:17:28;;;;;;;11.70;8.60;;;;;;;10.46;90.88;98790.98;225963;1275;25507;-75
2023/09/01 04:22:32;;;;;;;11.50;8.60;;;;;;;10.48;90.81;98796.83;225905;1276;22605;-76
2023/09/01 04:27:34;;;;;;;13.00;8.10;;;;;;;10.52;90.82;98801.09;225896;1278;25382;-75
2023/09/01 04:32:36;;;;;;;11.80;9.00;;;;;;;10.57;90.89;98806.28;225706;1280;22599;-74
2023/09/01 04:37:38;;;;;;;13.80;8.90;;;;;;;10.61;90.74;98808.95;225804;1280;22639;-75
2023/09/01 04:42:40;;;;;;;11.10;8.60;;;;;;;10.68;90.81;98809.17;225732;1277;22578;-75
2023/09/01 04:47:42;;;;;;;11.60;8.00;;;;;;;10.76;90.62;98812.18;225943;1280;22641;-75
2023/09/01 04:52:44;;;;;;;13.50;9.10;;;;;;;10.85;90.48;98816.98;225794;1280;22564;-74
2023/09/01 04:57:48;;;;;;;10.40;8.40;;;;;;;10.94;90.55;98813.14;225897;1276;22555;-74
2023/09/01 05:02:50;;;;;;;10.60;8.20;;;;;;;11.05;90.45;98815.71;225786;1278;22494;-75
2023/09/01 05:07:51;;;;;;;8.50;6.70;;;;;;;11.16;90.32;98822.06;225927;1276;22541;-75
2023/09/01 05:12:53;;;;;;;12.00;7.30;;;;;;;11.28;90.23;98823.42;225787;1277;23301;-75
2023/09/01 05:17:55;;;;;;;10.00;7.10;;;;;;;11.41;90.00;98818.41;225770;1280;22558;-75
2023/09/01 05:22:58;;;;;;;12.60;7.90;;;;;;;11.54;89.95;98818.66;225931;1280;24782;-74
2023/09/01 05:28:00;;;;;;;10.50;6.40;;;;;;;11.70;89.92;98822.88;225917;1280;25423;-75
2023/09/01 05:33:03;;;;;;;8.40;6.30;;;;;;;11.87;89.82;98831.08;225911;1278;22750;-75
2023/09/01 05:38:05;;;;;;;7.60;5.50;;;;;;;12.08;89.65;98836.90;225652;1277;22532;-75
2023/09/01 05:43:06;;;;;;;7.40;5.40;;;;;;;12.28;89.34;98839.03;225567;1275;22565;-76
2023/09/01 05:48:08;;;;;;;6.30;5.40;;;;;;;12.49;89.11;98842.66;225414;1278;22573;-76
2023/09/01 05:53:11;;;;;;;5.70;5.10;;;;;;;12.70;88.99;98840.11;225483;1278;25237;-76
2023/09/01 05:58:13;;;;;;;7.30;5.20;;;;;;;12.94;89.08;98845.67;225473;1262;24375;-75
2023/09/01 06:03:15;;;;;;;12.10;6.70;;;;;;;13.21;88.64;98849.70;225471;1273;22520;-75
2023/09/01 06:08:19;;;;;;;6.60;3.80;;;;;;;13.55;87.99;98853.73;225598;1273;22636;-76
2023/09/01 06:13:20;;;;;;;7.20;3.40;;;;;;;13.81;87.38;98852.82;225250;1261;22546;-76
2023/09/01 06:18:22;;;;;;;4.00;3.20;;;;;;;14.00;87.03;98857.70;225113;1265;26052;-75
2023/09/01 06:23:24;;;;;;;5.50;3.90;;;;;;;14.20;86.28;98856.77;225077;1262;22605;-75
2023/09/01 06:28:26;;;;;;;5.60;3.80;;;;;;;14.36;85.93;98856.07;225143;1262;22584;-76
2023/09/01 06:33:28;;;;;;;6.40;3.50;;;;;;;14.55;85.51;98859.41;225324;1259;23267;-76
2023/09/01 06:38:30;;;;;;;7.10;3.50;;;;;;;14.75;84.79;98857.19;225310;1265;22644;-76
2023/09/01 06:43:32;;;;;;;8.10;3.80;;;;;;;14.95;84.18;98857.98;225430;1262;22637;-75
2023/09/01 06:48:35;;;;;;;7.00;3.60;;;;;;;15.16;84.00;98859.27;225504;1262;22562;-75
2023/09/01 06:53:37;;;;;;;6.30;3.50;;;;;;;15.38;82.97;98859.84;225624;1271;22608;-80
2023/09/01 06:58:39;;;;;;;4.20;2.60;;;;;;;15.59;82.58;98857.90;225460;1270;23534;-76
2023/09/01 07:03:42;;;;;;;6.90;2.80;;;;;;;15.82;81.86;98853.52;225472;1262;22636;-76
2023/09/01 07:08:44;;;;;;;28.30;4.70;;;;;;;16.06;81.42;98858.11;225271;1271;22554;-76
2023/09/01 07:13:46;;;;;;;12.80;3.60;;;;;;;16.34;80.66;98851.89;225479;1259;23020;-75
2023/09/01 07:18:49;;;;;;;14.50;6.40;;;;;;;16.58;79.27;98844.78;225516;1266;22546;-77
2023/09/01 07:23:50;;;;;;;5.20;2.50;;;;;;;16.76;78.34;98851.39;225490;1266;25307;-77
2023/09/01 07:28:52;;;;;;;13.10;3.40;;;;;;;16.99;78.87;98847.50;225493;1262;22540;-77
2023/09/01 07:33:54;;;;;;;5.50;3.00;;;;;;;17.14;77.83;98850.84;225187;1266;22536;-77
2023/09/01 07:38:56;;;;;;;5.10;3.10;;;;;;;17.22;77.49;98847.46;225466;1273;22686;-80
2023/09/01 07:43:58;;;;;;;5.40;2.40;;;;;;;17.38;77.54;98849.29;225403;1275;22676;-77
2023/09/01 07:49:02;;;;;;;48.00;6.60;;;;;;;17.56;77.11;98858.73;225571;1271;25113;-78
2023/09/01 07:54:05;;;;;;;37.40;6.30;;;;;;;17.69;76.80;98858.50;225421;1267;22544;-77
2023/09/01 07:59:07;;;;;;;8.80;2.70;;;;;;;17.78;76.02;98863.21;225426;1269;22544;-77
2023/09/01 08:04:10;;;;;;;7.80;2.80;;;;;;;17.95;76.10;98864.84;225451;1262;23089;-77
2023/09/01 08:09:12;;;;;;;9.10;3.30;;;;;;;18.18;75.77;98860.46;225440;1278;24284;-79
2023/09/01 08:14:14;;;;;;;3.20;2.70;;;;;;;18.18;74.62;98852.23;225141;1280;22630;-78
2023/09/01 08:19:16;;;;;;;7.00;3.00;;;;;;;18.16;74.32;98855.61;225276;1277;22573;-78
2023/09/01 08:24:18;;;;;;;8.40;2.80;;;;;;;18.12;73.91;98859.79;225453;1278;23104;-77
2023/09/01 08:29:20;;;;;;;4.90;2.50;;;;;;;18.08;73.76;98867.48;225369;1278;22525;-79
2023/09/01 08:34:22;;;;;;;4.50;2.40;;;;;;;18.09;73.81;98872.84;225330;1278;25331;-79
2023/09/01 08:39:24;;;;;;;5.90;2.80;;;;;;;18.17;73.53;98875.20;225401;1266;22551;-78
2023/09/01 08:44:28;;;;;;;5.90;2.70;;;;;;;18.23;73.08;98872.67;225491;1280;22681;-80
2023/09/01 08:49:29;;;;;;;6.30;2.90;;;;;;;18.27;72.86;98873.45;225403;1257;22561;-76
2023/09/01 08:54:34;;;;;;;5.00;2.70;;;;;;;18.42;72.96;98870.55;225213;1277;22570;-77
2023/09/01 08:59:37;;;;;;;17.80;4.10;;;;;;;18.57;72.13;98877.55;225424;1280;22544;-79
2023/09/01 09:04:39;;;;;;;6.80;2.60;;;;;;;18.67;72.19;98874.45;225381;1278;22686;-78
2023/09/01 09:09:53;;;;;;;4.00;2.50;;;;;;;18.86;72.09;98885.05;225564;1267;22537;-77
2023/09/01 09:14:55;;;;;;;4.10;2.60;;;;;;;19.05;71.57;98885.77;225453;1280;22566;-79
2023/09/01 09:20:00;;;;;;;3.70;2.50;;;;;;;19.20;71.19;98890.23;225401;1276;24210;-77
2023/09/01 09:25:02;;;;;;;4.70;2.50;;;;;;;19.35;70.72;98888.50;225461;1280;22534;-77
2023/09/01 09:30:12;;;;;;;6.20;2.80;;;;;;;19.52;70.48;98888.70;225439;1278;22537;-77
2023/09/01 09:35:16;;;;;;;5.90;3.20;;;;;;;19.77;70.24;98889.34;225604;1278;22549;-77
2023/09/01 09:40:18;;;;;;;4.90;2.80;;;;;;;19.97;70.18;98883.79;225521;1278;22972;-77
2023/09/01 09:45:34;;;;;;;4.50;2.80;;;;;;;20.00;69.29;98890.81;225567;1278;22544;-77
2023/09/01 09:50:38;;;;;;;4.30;2.60;;;;;;;20.23;69.27;98888.77;225531;1279;23056;-77
2023/09/01 09:55:45;;;;;;;3.60;2.30;;;;;;;20.55;69.56;98878.69;225684;1275;22535;-76
2023/09/01 10:00:53;;;;;;;5.20;2.50;;;;;;;20.89;68.85;98872.91;225386;1275;22898;-76
2023/09/01 10:05:56;;;;;;;3.30;2.30;;;;;;;21.13;67.62;98868.65;225224;1280;22641;-76
2023/09/01 10:10:59;;;;;;;3.00;2.20;;;;;;;21.28;66.61;98870.73;225533;1278;22986;-75
2023/09/01 10:16:02;;;;;;;4.80;3.50;;;;;;;21.39;65.80;98869.77;225525;1278;23095;-76
2023/09/01 10:21:05;;;;;;;4.40;2.70;;;;;;;21.36;65.08;98873.02;225441;1279;22577;-76
2023/09/01 10:26:29;;;;;;;4.80;3.00;;;;;;;21.32;65.37;98873.95;225591;1270;22533;-76
2023/09/01 10:31:33;;;;;;;4.20;2.80;;;;;;;21.37;65.49;98873.79;225797;1278;22581;-77
2023/09/01 10:36:40;;;;;;;3.20;2.20;;;;;;;21.49;64.98;98864.11;225433;1276;22533;-78
2023/09/01 10:42:03;;;;;;;6.20;3.10;;;;;;;21.56;64.88;98864.22;225584;1280;22559;-78
2023/09/01 10:47:43;;;;;;;5.50;3.30;;;;;;;21.67;63.35;98861.55;225374;1280;27080;-78
2023/09/01 10:53:23;;;;;;;6.10;2.90;;;;;;;21.93;63.47;98856.46;225462;1280;25319;-76
2023/09/01 10:58:37;;;;;;;4.80;2.90;;;;;;;22.25;63.33;98849.88;225491;1262;22553;-75
2023/09/01 11:03:39;;;;;;;11.10;10.00;;;;;;;22.07;62.17;98851.02;225613;1277;24768;-75
2023/09/01 11:08:41;;;;;;;3.60;2.70;;;;;;;21.81;62.30;98850.30;225568;1269;22567;-75
2023/09/01 11:13:43;;;;;;;3.20;2.50;;;;;;;21.66;62.93;98843.74;225570;1273;22560;-75
2023/09/01 11:18:46;;;;;;;3.40;2.20;;;;;;;21.66;63.06;98843.58;225465;1278;25392;-75
2023/09/01 11:23:48;;;;;;;4.20;2.60;;;;;;;21.77;63.07;98845.91;225430;1277;23164;-78
2023/09/01 11:28:50;;;;;;;6.70;3.20;;;;;;;21.99;62.87;98844.89;225386;1278;22539;-76
2023/09/01 11:33:53;;;;;;;5.40;3.20;;;;;;;22.06;62.92;98842.90;225523;1278;23089;-76
2023/09/01 11:38:55;;;;;;;3.80;2.50;;;;;;;22.25;63.27;98834.31;225616;1280;25424;-76
2023/09/01 11:43:58;;;;;;;2.90;2.60;;;;;;;22.64;62.61;98830.33;225454;1276;22560;-75
2023/09/01 11:49:01;;;;;;;3.10;2.70;;;;;;;22.85;61.80;98829.55;225336;1280;22563;-75
2023/09/01 11:54:04;;;;;;;4.20;2.50;;;;;;;22.73;61.31;98832.55;225312;1280;22637;-75
2023/09/01 11:59:06;;;;;;;2.70;2.20;;;;;;;22.55;60.64;98829.55;225424;1278;22552;-76
2023/09/01 12:04:09;;;;;;;5.50;3.80;;;;;;;22.34;61.00;98826.61;225415;1279;22597;-76
2023/09/01 12:09:14;;;;;;;6.30;3.70;;;;;;;22.46;61.59;98828.38;225369;1259;22543;-76
2023/09/01 12:14:30;;;;;;;7.60;4.50;;;;;;;22.54;61.20;98822.97;225341;1267;22644;-75
2023/09/01 12:19:49;;;;;;;5.80;2.80;;;;;;;22.53;61.24;98821.14;225279;1272;22635;-75
2023/09/01 12:24:54;;;;;;;4.70;2.20;;;;;;;22.76;60.86;98817.93;225630;1271;22562;-76
2023/09/01 12:29:55;;;;;;;3.10;2.30;;;;;;;22.92;58.75;98818.41;225589;1278;22635;-75
2023/09/01 12:34:57;;;;;;;2.50;2.10;;;;;;;22.96;58.92;98813.67;225619;1280;22604;-74
2023/09/01 12:39:59;;;;;;;3.60;2.10;;;;;;;22.84;57.82;98818.92;225540;1277;22572;-76
2023/09/01 12:45:01;;;;;;;4.10;2.00;;;;;;;22.51;58.16;98825.38;225351;1272;23280;-75
2023/09/01 12:50:04;;;;;;;6.10;2.20;;;;;;;22.34;58.73;98826.39;225488;1278;22562;-75
2023/09/01 12:55:06;;;;;;;2.90;2.00;;;;;;;22.50;59.23;98824.73;225480;1278;22561;-75
2023/09/01 13:00:09;;;;;;;2.70;2.20;;;;;;;22.52;58.85;98830.14;225336;1272;22544;-74
2023/09/01 13:05:11;;;;;;;2.80;2.20;;;;;;;22.49;58.39;98823.87;225601;1280;22689;-75
2023/09/01 13:10:19;;;;;;;3.50;2.30;;;;;;;22.63;59.15;98824.45;225520;1278;25338;-74
2023/09/01 13:15:21;;;;;;;4.20;2.40;;;;;;;22.82;59.00;98826.41;225474;1279;22643;-75
2023/09/01 13:20:23;;;;;;;3.60;2.20;;;;;;;22.84;59.00;98827.29;225490;1280;22559;-74
2023/09/01 13:25:25;;;;;;;2.90;2.20;;;;;;;22.74;59.18;98819.95;225350;1258;22562;-75
2023/09/01 13:30:26;;;;;;;4.50;2.10;;;;;;;22.61;59.57;98817.06;225423;1273;22830;-75
2023/09/01 13:35:28;;;;;;;3.90;2.50;;;;;;;22.51;60.04;98814.61;225012;1274;434660;-75
2023/09/01 13:40:30;;;;;;;3.20;2.40;;;;;;;22.44;60.10;98818.57;225556;1281;23300;-75
2023/09/01 13:45:32;;;;;;;2.80;1.90;;;;;;;22.33;59.50;98822.08;225436;1262;24269;-74
2023/09/01 13:50:34;;;;;;;2.90;1.90;;;;;;;22.08;60.17;98821.32;225489;1281;22539;-74
2023/09/01 13:55:36;;;;;;;2.30;2.00;;;;;;;21.99;60.48;98826.48;225330;1264;22714;-75
2023/09/01 14:00:38;;;;;;;2.70;2.30;;;;;;;21.85;60.74;98823.27;225208;1278;22996;-75
2023/09/01 14:05:40;;;;;;;2.50;2.00;;;;;;;21.71;61.22;98819.72;225344;1278;22542;-74
2023/09/01 14:10:42;;;;;;;3.20;2.20;;;;;;;21.70;61.92;98825.30;225358;1279;24264;-74
2023/09/01 14:15:47;;;;;;;2.90;1.80;;;;;;;21.64;61.70;98824.52;225251;1280;22571;-74
2023/09/01 14:20:52;;;;;;;3.40;2.40;;;;;;;21.59;62.05;98828.80;225592;1276;22560;-75
2023/09/01 14:25:54;;;;;;;2.70;2.30;;;;;;;21.63;62.54;98831.84;225780;1281;22545;-74
2023/09/01 14:30:56;;;;;;;2.50;2.10;;;;;;;21.71;62.75;98835.32;225793;1277;22570;-74
2023/09/01 14:35:59;;;;;;;3.20;1.90;;;;;;;21.77;62.82;98844.26;225884;1279;22556;-73
2023/09/01 14:41:01;;;;;;;2.70;2.00;;;;;;;21.87;62.67;98838.02;225817;1280;22619;-73
2023/09/01 14:46:03;;;;;;;3.70;2.10;;;;;;;21.88;62.72;98830.33;225850;1271;22539;-73
2023/09/01 14:51:08;;;;;;;2.90;2.10;;;;;;;21.87;62.74;98828.38;225795;1280;25289;-74
2023/09/01 14:56:12;;;;;;;3.70;2.10;;;;;;;21.85;62.55;98825.52;225760;1279;22541;-74
2023/09/01 15:01:14;;;;;;;3.40;2.20;;;;;;;21.75;62.73;98835.36;225717;1280;22548;-73
2023/09/01 15:06:16;;;;;;;2.90;1.90;;;;;;;21.62;62.63;98840.15;225796;1278;22563;-74
2023/09/01 15:11:17;;;;;;;3.10;2.20;;;;;;;21.38;63.11;98836.11;225826;1281;22539;-74
2023/09/01 15:16:20;;;;;;;3.40;1.80;;;;;;;21.26;63.47;98830.20;225826;1277;22619;-73
2023/09/01 15:21:22;;;;;;;3.80;2.30;;;;;;;21.20;63.99;98835.73;225887;1274;22540;-74
2023/09/01 15:26:25;;;;;;;5.60;2.70;;;;;;;21.17;64.35;98827.24;225830;1273;23449;-73
2023/09/01 15:31:26;;;;;;;2.20;2.00;;;;;;;21.07;64.40;98826.88;225805;1280;22524;-74
2023/09/01 15:36:28;;;;;;;2.50;2.20;;;;;;;20.95;64.95;98826.34;225710;1280;22557;-74
2023/09/01 15:41:30;;;;;;;3.00;2.20;;;;;;;20.93;65.44;98826.96;225881;1280;25250;-75
2023/09/01 15:46:33;;;;;;;3.90;2.80;;;;;;;20.85;65.19;98831.66;225834;1276;26051;-75
2023/09/01 15:51:41;;;;;;;3.70;2.20;;;;;;;20.72;65.67;98827.72;225829;1274;25785;-74
2023/09/01 15:56:43;;;;;;;3.00;2.30;;;;;;;20.66;65.83;98825.88;225811;1279;22567;-74
2023/09/01 16:01:44;;;;;;;3.10;2.80;;;;;;;20.58;66.07;98821.94;225832;1277;23223;-73
2023/09/01 16:06:46;;;;;;;2.40;2.20;;;;;;;20.49;66.15;98818.81;225841;1280;24472;-73
2023/09/01 16:11:48;;;;;;;2.50;2.30;;;;;;;20.40;66.46;98825.14;225764;1277;22551;-74
2023/09/01 16:16:53;;;;;;;2.90;2.60;;;;;;;20.27;66.70;98826.56;225837;1280;22623;-74
2023/09/01 16:21:58;;;;;;;1.90;1.80;;;;;;;20.15;67.09;98817.89;225810;1276;22625;-73
2023/09/01 16:26:59;;;;;;;2.80;1.80;;;;;;;20.04;67.17;98815.06;225919;1276;22560;-73
2023/09/01 16:32:01;;;;;;;2.30;1.80;;;;;;;19.93;67.50;98810.61;225974;1280;22546;-72
2023/09/01 16:37:03;;;;;;;3.10;2.20;;;;;;;19.84;67.69;98808.35;226081;1279;22751;-75
2023/09/01 16:42:05;;;;;;;2.80;2.20;;;;;;;19.70;67.88;98807.89;226156;1273;22547;-73
2023/09/01 16:47:07;;;;;;;2.50;2.00;;;;;;;19.57;68.21;98812.14;225921;1280;22567;-74
2023/09/01 16:52:09;;;;;;;2.30;2.10;;;;;;;19.46;68.54;98814.52;225943;1279;25271;-74
2023/09/01 16:57:11;;;;;;;5.80;2.80;;;;;;;19.37;68.82;98813.57;226049;1273;22533;-74
2023/09/01 17:02:13;;;;;;;2.60;2.10;;;;;;;19.28;69.33;98815.95;226042;1277;22574;-73
2023/09/01 17:07:14;;;;;;;3.50;2.60;;;;;;;19.20;69.67;98819.08;226073;1276;24235;-74
2023/09/01 17:12:16;;;;;;;3.40;2.90;;;;;;;19.12;69.94;98825.75;226056;1280;22523;-74
2023/09/01 17:17:18;;;;;;;3.20;2.80;;;;;;;19.04;70.27;98826.55;226106;1277;22524;-74
2023/09/01 17:22:20;;;;;;;3.00;2.70;;;;;;;18.91;70.42;98831.59;225906;1278;22536;-74
2023/09/01 17:27:24;;;;;;;6.80;3.10;;;;;;;18.77;70.73;98837.91;226044;1263;22548;-73
2023/09/01 17:32:27;;;;;;;3.20;2.90;;;;;;;18.65;71.14;98833.15;226053;1275;25390;-73
2023/09/01 17:37:29;;;;;;;3.00;2.70;;;;;;;18.52;71.32;98829.98;225949;1274;22563;-73
2023/09/01 17:42:31;;;;;;;2.80;2.40;;;;;;;18.40;71.80;98833.31;226004;1276;22584;-73
2023/09/01 17:47:33;;;;;;;3.10;2.60;;;;;;;18.28;72.08;98834.52;225941;1279;22559;-75
2023/09/01 17:52:36;;;;;;;3.80;2.90;;;;;;;18.20;72.39;98832.16;225746;1276;22572;-73
2023/09/01 17:57:38;;;;;;;4.00;2.70;;;;;;;18.15;72.75;98837.02;225993;1276;22586;-74
2023/09/01 18:02:40;;;;;;;4.50;3.30;;;;;;;18.12;72.99;98839.91;226021;1273;22540;-75
2023/09/01 18:07:42;;;;;;;3.60;2.90;;;;;;;18.10;73.25;98852.10;225866;1278;22544;-74
2023/09/01 18:12:44;;;;;;;4.70;3.10;;;;;;;18.05;73.43;98855.06;226025;1276;25469;-74
2023/09/01 18:17:45;;;;;;;3.70;3.20;;;;;;;18.01;73.66;98857.73;226073;1280;22668;-73
2023/09/01 18:22:49;;;;;;;4.40;3.30;;;;;;;17.94;73.93;98854.40;226002;1276;22556;-73
2023/09/01 18:27:51;;;;;;;3.30;3.00;;;;;;;17.88;74.20;98857.46;226042;1275;22540;-74
2023/09/01 18:33:04;;;;;;;10.30;8.70;;;;;;;17.83;74.41;98854.66;225924;1279;25269;-74
2023/09/01 18:38:13;;;;;;;4.70;4.10;;;;;;;17.79;74.73;98855.08;225995;1275;22550;-74
2023/09/01 18:43:15;;;;;;;4.10;3.40;;;;;;;17.76;74.88;98853.00;225944;1273;22536;-73
2023/09/01 18:48:22;;;;;;;4.40;3.30;;;;;;;17.71;75.14;98846.75;225983;1276;22555;-74
2023/09/01 18:53:26;;;;;;;5.10;3.60;;;;;;;17.67;75.24;98847.77;225977;1272;22547;-74
2023/09/01 18:58:28;;;;;;;6.90;4.50;;;;;;;17.62;75.60;98850.59;225986;1276;22584;-75
2023/09/01 19:03:30;;;;;;;6.50;4.50;;;;;;;17.58;75.83;98856.73;225968;1276;22536;-73
2023/09/01 19:08:33;;;;;;;7.60;5.20;;;;;;;17.55;75.96;98858.46;226039;1276;22922;-73
2023/09/01 19:13:36;;;;;;;6.20;4.60;;;;;;;17.53;76.30;98854.69;226015;1275;22538;-74
2023/09/01 19:18:40;;;;;;;7.40;4.50;;;;;;;17.50;76.51;98855.95;225991;1272;22856;-74
2023/09/01 19:23:42;;;;;;;6.60;4.80;;;;;;;17.44;76.68;98859.01;226004;1275;22719;-75
2023/09/01 19:28:45;;;;;;;7.00;5.00;;;;;;;17.35;76.64;98858.41;226023;1279;23579;-74
2023/09/01 19:33:56;;;;;;;7.60;4.90;;;;;;;17.27;76.86;98863.88;225924;1280;22612;-74
2023/09/01 19:39:04;;;;;;;6.30;4.70;;;;;;;17.19;77.08;98870.04;225972;1275;24326;-73
2023/09/01 19:44:09;;;;;;;6.80;4.70;;;;;;;17.13;77.33;98871.60;225981;1279;22555;-73
2023/09/01 19:49:14;;;;;;;6.00;4.30;;;;;;;17.12;77.71;98872.36;226090;1277;22543;-74
2023/09/01 19:54:20;;;;;;;4.80;4.10;;;;;;;17.13;77.79;98878.38;226007;1272;22584;-73
2023/09/01 19:59:28;;;;;;;5.50;4.20;;;;;;;17.17;77.95;98886.59;226023;1269;22594;-75
2023/09/01 20:04:33;;;;;;;5.60;4.10;;;;;;;17.21;78.30;98888.35;226044;1276;22540;-74
2023/09/01 20:09:35;;;;;;;4.50;4.00;;;;;;;17.27;78.51;98891.00;226072;1276;22793;-73
2023/09/01 20:14:38;;;;;;;6.60;4.50;;;;;;;17.32;78.44;98896.69;226012;1280;24390;-73
2023/09/01 20:19:42;;;;;;;5.10;4.30;;;;;;;17.34;78.39;98895.42;226034;1277;22521;-73
2023/09/01 20:24:44;;;;;;;5.10;4.40;;;;;;;17.36;78.37;98898.84;226093;1272;22551;-73
2023/09/01 20:29:46;;;;;;;5.80;4.60;;;;;;;17.37;78.47;98895.84;226074;1276;22573;-73
2023/09/01 20:34:48;;;;;;;5.70;4.80;;;;;;;17.36;78.59;98892.84;226011;1277;22595;-74
2023/09/01 20:39:49;;;;;;;5.50;4.10;;;;;;;17.35;78.56;98892.33;226021;1279;22613;-73
2023/09/01 20:44:51;;;;;;;6.50;4.30;;;;;;;17.35;78.94;98894.22;226045;1276;24785;-74
2023/09/01 20:49:55;;;;;;;7.80;4.90;;;;;;;17.35;78.94;98894.48;226048;1278;23279;-74
2023/09/01 20:54:57;;;;;;;7.80;4.60;;;;;;;17.32;78.95;98896.48;226049;1277;25457;-75
2023/09/01 20:59:59;;;;;;;6.10;4.70;;;;;;;17.29;79.04;98887.48;226062;1272;22727;-73
2023/09/01 21:05:04;;;;;;;7.10;5.30;;;;;;;17.24;79.19;98888.15;226050;1275;22551;-74
2023/09/01 21:10:12;;;;;;;9.10;5.00;;;;;;;17.20;79.24;98886.56;226078;1279;22540;-73
2023/09/01 21:15:14;;;;;;;7.30;5.60;;;;;;;17.17;79.46;98884.98;226053;1275;23501;-74
2023/09/01 21:20:16;;;;;;;7.20;5.70;;;;;;;17.15;79.64;98879.80;225967;1279;22590;-74
2023/09/01 21:25:18;;;;;;;6.60;5.70;;;;;;;17.11;79.68;98881.41;226024;1276;22546;-73
2023/09/01 21:30:20;;;;;;;7.10;5.70;;;;;;;17.06;79.90;98880.86;226136;1275;22546;-73
2023/09/01 21:35:42;;;;;;;5.80;5.20;;;;;;;17.03;80.03;98879.44;226063;1276;22660;-73
2023/09/01 21:40:44;;;;;;;5.80;4.60;;;;;;;17.01;80.19;98879.59;226031;1275;22558;-74
2023/09/01 21:45:46;;;;;;;8.30;5.70;;;;;;;16.98;80.24;98881.64;225955;1279;22553;-74
2023/09/01 21:50:48;;;;;;;7.60;6.00;;;;;;;16.92;80.40;98879.30;225969;1262;23422;-74
2023/09/01 21:55:50;;;;;;;9.00;6.50;;;;;;;16.88;80.58;98878.78;226124;1272;22538;-73
2023/09/01 22:00:52;;;;;;;6.80;5.70;;;;;;;16.84;80.60;98875.95;226059;1276;23238;-74
2023/09/01 22:05:54;;;;;;;8.90;6.20;;;;;;;16.82;80.80;98875.77;226098;1279;22571;-72
2023/09/01 22:10:56;;;;;;;7.00;5.30;;;;;;;16.80;80.97;98879.73;226132;1279;22571;-75
2023/09/01 22:15:58;;;;;;;7.00;5.40;;;;;;;16.78;81.03;98886.23;226012;1279;22628;-73
2023/09/01 22:20:59;;;;;;;6.50;5.60;;;;;;;16.78;81.24;98885.46;226168;1278;22555;-74
2023/09/01 22:26:01;;;;;;;8.00;5.30;;;;;;;16.78;81.42;98887.60;226118;1275;22544;-73
2023/09/01 22:31:03;;;;;;;8.90;5.90;;;;;;;16.77;81.58;98885.20;226050;1280;22590;-73
2023/09/01 22:36:05;;;;;;;6.10;5.30;;;;;;;16.77;81.77;98894.54;225919;1278;22564;-73
2023/09/01 22:41:09;;;;;;;9.00;6.00;;;;;;;16.75;81.70;98900.20;226149;1272;22544;-74
2023/09/01 22:46:11;;;;;;;7.50;6.00;;;;;;;16.75;81.75;98898.83;226155;1280;22521;-73
2023/09/01 22:51:13;;;;;;;7.60;5.80;;;;;;;16.76;81.82;98897.67;226156;1275;22551;-73
2023/09/01 22:56:15;;;;;;;8.00;5.70;;;;;;;16.77;81.83;98892.84;226162;1276;24263;-74
2023/09/01 23:01:17;;;;;;;7.30;5.50;;;;;;;16.79;82.00;98892.65;226096;1275;22543;-74
2023/09/01 23:06:18;;;;;;;6.00;5.40;;;;;;;16.78;82.07;98896.59;226136;1276;22537;-74
2023/09/01 23:11:22;;;;;;;8.00;6.10;;;;;;;16.76;82.11;98895.86;226175;1279;22543;-72
2023/09/01 23:16:24;;;;;;;8.80;7.80;;;;;;;16.76;82.20;98898.78;226175;1278;22556;-73
2023/09/01 23:21:26;;;;;;;8.00;6.30;;;;;;;16.74;82.21;98902.73;226139;1275;22567;-73
2023/09/01 23:26:28;;;;;;;8.00;6.20;;;;;;;16.73;82.32;98902.80;226134;1280;22562;-73